Time;durP1;ratioP1;P1;durP2;ratioP2;P2;SDS_P1;SDS_P2;PMS_P1;PMS_P2;Temp;Humidity;BMP_temperature;BMP_pressure;BME280_temperature;BME280_humidity;BME280_pressure;Samples;Min_cycle;Max_cycle;Signal;HPM_P1;HPM_P2
2021/12/04 00:02:27;;;;;;;0.90;0.90;;;;;;;;;;5090048;28;20206;-67
2021/12/04 00:04:56;;;;;;;1.50;1.40;;;;;;;;;;5090676;28;20684;-67
2021/12/04 00:07:23;;;;;;;0.90;0.90;;;;;;;;;;5098186;28;20217;-67
2021/12/04 00:09:51;;;;;;;1.07;1.07;;;;;;;;;;5089971;28;20241;-68
2021/12/04 00:12:18;;;;;;;0.90;0.90;;;;;;;;;;5090948;28;20326;-67
2021/12/04 00:14:46;;;;;;;0.90;0.90;;;;;;;;;;5091001;28;20210;-68
2021/12/04 00:17:13;;;;;;;1.37;1.07;;;;;;;;;;5105117;28;20206;-67
2021/12/04 00:19:41;;;;;;;1.43;1.33;;;;;;;;;;5107683;28;20278;-68
2021/12/04 00:22:09;;;;;;;0.97;0.83;;;;;;;;;;5089896;28;20597;-65
2021/12/04 00:24:36;;;;;;;1.93;1.00;;;;;;;;;;5089430;28;20210;-67
2021/12/04 00:27:03;;;;;;;1.43;0.97;;;;;;;;;;5107782;28;20213;-68
2021/12/04 00:29:31;;;;;;;0.80;0.80;;;;;;;;;;5099477;28;20673;-68
2021/12/04 00:32:00;;;;;;;1.00;1.00;;;;;;;;;;5103698;28;20214;-68
2021/12/04 00:34:29;;;;;;;3.13;1.30;;;;;;;;;;5088563;28;20744;-67
2021/12/04 00:50:47;;;;;;;0.80;0.80;;;;;;;;;;5106342;28;20197;-66
2021/12/04 00:53:15;;;;;;;2.87;1.40;;;;;;;;;;5105994;28;20230;-66
2021/12/04 00:55:42;;;;;;;1.43;1.07;;;;;;;;;;5092693;28;20206;-65
2021/12/04 00:58:09;;;;;;;0.93;0.93;;;;;;;;;;5108236;28;20211;-66
2021/12/04 01:00:37;;;;;;;1.10;1.07;;;;;;;;;;5108458;28;20494;-66
2021/12/04 01:03:04;;;;;;;1.33;1.07;;;;;;;;;;5103806;28;20229;-66
2021/12/04 01:05:31;;;;;;;1.53;0.90;;;;;;;;;;5090086;28;20210;-66
2021/12/04 01:07:58;;;;;;;5.47;0.80;;;;;;;;;;5103450;28;20210;-66
2021/12/04 01:10:26;;;;;;;0.80;0.80;;;;;;;;;;5090347;28;20313;-66
2021/12/04 01:12:56;;;;;;;0.77;0.70;;;;;;;;;;5107640;28;20224;-66
2021/12/04 01:15:23;;;;;;;2.10;1.40;;;;;;;;;;5094194;28;20206;-66
2021/12/04 01:17:50;;;;;;;0.90;0.90;;;;;;;;;;5106821;28;20205;-66
2021/12/04 01:20:17;;;;;;;6.27;1.10;;;;;;;;;;5107027;28;20213;-66
2021/12/04 01:22:44;;;;;;;0.70;0.70;;;;;;;;;;5090727;28;20217;-66
2021/12/04 01:25:11;;;;;;;1.53;0.93;;;;;;;;;;5089820;28;20212;-66
2021/12/04 01:27:39;;;;;;;4.17;1.03;;;;;;;;;;5090249;28;20259;-66
2021/12/04 01:30:07;;;;;;;0.60;0.60;;;;;;;;;;5088588;28;20213;-67
2021/12/04 01:32:35;;;;;;;1.17;1.07;;;;;;;;;;5103842;28;20229;-66
2021/12/04 01:35:02;;;;;;;1.30;0.97;;;;;;;;;;5112963;28;20278;-66
2021/12/04 01:37:29;;;;;;;1.37;0.90;;;;;;;;;;5101417;28;20216;-66
2021/12/04 01:39:56;;;;;;;1.03;0.73;;;;;;;;;;5092599;28;20232;-66
2021/12/04 01:42:23;;;;;;;0.63;0.63;;;;;;;;;;5095883;28;20198;-66
2021/12/04 01:44:51;;;;;;;0.87;0.87;;;;;;;;;;5111973;28;20221;-66
2021/12/04 01:47:20;;;;;;;1.50;0.70;;;;;;;;;;5109489;28;20201;-66
2021/12/04 01:49:48;;;;;;;0.50;0.50;;;;;;;;;;5110666;28;20582;-67
2021/12/04 01:52:17;;;;;;;0.60;0.43;;;;;;;;;;5093451;28;20285;-67
2021/12/04 01:54:44;;;;;;;1.00;1.00;;;;;;;;;;5092582;28;20217;-66
2021/12/04 01:57:13;;;;;;;0.40;0.40;;;;;;;;;;5093392;28;20289;-66
2021/12/04 01:59:40;;;;;;;1.30;1.30;;;;;;;;;;5101834;28;20209;-66
2021/12/04 02:02:09;;;;;;;0.60;0.60;;;;;;;;;;5095213;28;20229;-65
2021/12/04 02:04:36;;;;;;;0.60;0.60;;;;;;;;;;5090804;28;20202;-66
2021/12/04 02:07:04;;;;;;;0.70;0.70;;;;;;;;;;5110203;28;20614;-66
2021/12/04 02:09:31;;;;;;;0.60;0.60;;;;;;;;;;5110075;28;20308;-66
2021/12/04 02:11:59;;;;;;;0.60;0.60;;;;;;;;;;5112011;28;20731;-66
2021/12/04 02:14:26;;;;;;;0.97;0.93;;;;;;;;;;5106721;28;20214;-68
2021/12/04 02:16:53;;;;;;;1.17;0.60;;;;;;;;;;5110348;28;20201;-66
2021/12/04 02:19:21;;;;;;;1.13;0.83;;;;;;;;;;5111381;28;20618;-67
2021/12/04 02:21:49;;;;;;;1.13;0.70;;;;;;;;;;5099160;28;20212;-66
2021/12/04 02:24:16;;;;;;;5.40;1.00;;;;;;;;;;5111586;28;20249;-66
2021/12/04 02:26:43;;;;;;;0.57;0.57;;;;;;;;;;5111181;28;20211;-66
2021/12/04 02:29:11;;;;;;;0.60;0.50;;;;;;;;;;5109299;28;20269;-66
2021/12/04 02:31:39;;;;;;;0.60;0.60;;;;;;;;;;5111776;27;20621;-67
2021/12/04 02:34:06;;;;;;;4.10;0.80;;;;;;;;;;5110237;28;20312;-67
2021/12/04 02:36:33;;;;;;;0.67;0.67;;;;;;;;;;5112183;28;20217;-66
2021/12/04 02:39:02;;;;;;;0.67;0.67;;;;;;;;;;5103639;28;20201;-66
2021/12/04 02:41:29;;;;;;;0.70;0.47;;;;;;;;;;5092096;28;20205;-67
2021/12/04 02:43:56;;;;;;;0.67;0.57;;;;;;;;;;5093350;28;20672;-66
2021/12/04 02:46:23;;;;;;;0.70;0.70;;;;;;;;;;5112553;28;20273;-66
2021/12/04 02:48:50;;;;;;;0.70;0.70;;;;;;;;;;5109302;28;20246;-66
2021/12/04 02:51:19;;;;;;;0.70;0.70;;;;;;;;;;5093115;28;20878;-66
2021/12/04 02:53:46;;;;;;;0.57;0.57;;;;;;;;;;5093605;28;20333;-66
2021/12/04 02:56:14;;;;;;;0.73;0.43;;;;;;;;;;5112000;28;20258;-66
2021/12/04 02:58:45;;;;;;;1.27;0.90;;;;;;;;;;5112193;28;20978;-66
2021/12/04 03:01:12;;;;;;;0.87;0.87;;;;;;;;;;5092965;28;20680;-66
2021/12/04 03:03:39;;;;;;;0.83;0.83;;;;;;;;;;5106464;28;20204;-65
2021/12/04 03:06:06;;;;;;;1.57;0.87;;;;;;;;;;5102994;28;20216;-66
2021/12/04 03:08:33;;;;;;;0.73;0.73;;;;;;;;;;5091795;28;20262;-66
2021/12/04 03:11:00;;;;;;;0.83;0.83;;;;;;;;;;5097972;28;20614;-66
2021/12/04 03:13:28;;;;;;;3.03;1.20;;;;;;;;;;5105164;28;20233;-66
2021/12/04 03:15:59;;;;;;;0.60;0.60;;;;;;;;;;5092920;28;20216;-66
2021/12/04 03:18:26;;;;;;;0.90;0.90;;;;;;;;;;5092428;28;20755;-66
2021/12/04 03:20:55;;;;;;;0.53;0.53;;;;;;;;;;5100399;28;20208;-65
2021/12/04 03:23:28;;;;;;;6.67;0.80;;;;;;;;;;5108926;28;20219;-66
2021/12/04 03:25:58;;;;;;;1.37;1.20;;;;;;;;;;5105914;28;20739;-66
2021/12/04 03:28:26;;;;;;;0.50;0.50;;;;;;;;;;5097020;28;20191;-66
2021/12/04 03:30:59;;;;;;;0.70;0.70;;;;;;;;;;5111672;28;20217;-66
2021/12/04 03:41:40;;;;;;;4.00;0.87;;;;;;;;;;5093514;28;20218;-66
2021/12/04 03:44:07;;;;;;;0.60;0.60;;;;;;;;;;5092339;28;20675;-66
2021/12/04 03:46:35;;;;;;;3.03;1.00;;;;;;;;;;5092067;28;20209;-66
2021/12/04 03:49:02;;;;;;;0.73;0.50;;;;;;;;;;5090959;28;20208;-66
2021/12/04 03:51:29;;;;;;;1.10;1.00;;;;;;;;;;5090831;28;20209;-66
2021/12/04 03:53:56;;;;;;;1.07;1.00;;;;;;;;;;5092311;28;20220;-66
2021/12/04 03:56:24;;;;;;;1.13;1.07;;;;;;;;;;5096364;28;20302;-66
2021/12/04 03:58:51;;;;;;;4.50;1.10;;;;;;;;;;5100502;28;20623;-66
2021/12/04 04:01:18;;;;;;;1.13;1.13;;;;;;;;;;5098179;28;20207;-66
2021/12/04 04:03:47;;;;;;;0.93;0.67;;;;;;;;;;5102756;28;20203;-66
2021/12/04 04:06:14;;;;;;;0.67;0.67;;;;;;;;;;5094322;28;20218;-66
2021/12/04 04:08:41;;;;;;;0.87;0.87;;;;;;;;;;5092450;28;20216;-66
2021/12/04 04:11:08;;;;;;;1.27;1.07;;;;;;;;;;5088943;28;20240;-67
2021/12/04 04:13:45;;;;;;;1.20;1.10;;;;;;;;;;5102440;28;20239;-66
2021/12/04 04:16:12;;;;;;;0.63;0.63;;;;;;;;;;5107135;28;20207;-67
2021/12/04 04:18:39;;;;;;;1.03;1.00;;;;;;;;;;5097921;28;20204;-66
2021/12/04 04:21:08;;;;;;;1.13;1.13;;;;;;;;;;5108326;28;20208;-66
2021/12/04 04:23:35;;;;;;;1.00;1.00;;;;;;;;;;5106754;28;20207;-67
2021/12/04 04:26:02;;;;;;;1.00;0.90;;;;;;;;;;5108184;28;20209;-67
2021/12/04 04:28:29;;;;;;;1.53;1.03;;;;;;;;;;5097078;28;20237;-67
2021/12/04 04:30:56;;;;;;;1.07;1.07;;;;;;;;;;5089519;28;20630;-66
2021/12/04 04:33:23;;;;;;;0.90;0.53;;;;;;;;;;5100714;28;20773;-67
2021/12/04 04:36:03;;;;;;;1.50;1.13;;;;;;;;;;5107782;28;20205;-66
2021/12/04 04:38:40;;;;;;;0.90;0.90;;;;;;;;;;5108847;27;20325;-67
2021/12/04 04:58:02;;;;;;;1.00;0.97;;;;;;;;;;5102258;28;20211;-66
2021/12/04 05:11:40;;;;;;;1.53;1.27;;;;;;;;;;5090091;28;20240;-66
2021/12/04 05:14:07;;;;;;;1.10;1.00;;;;;;;;;;5088839;28;20659;-66
2021/12/04 05:16:45;;;;;;;1.20;1.10;;;;;;;;;;5089221;28;20213;-66
2021/12/04 05:19:25;;;;;;;1.10;1.07;;;;;;;;;;5104856;28;20211;-66
2021/12/04 05:21:52;;;;;;;1.07;1.07;;;;;;;;;;5094692;28;20236;-66
2021/12/04 05:24:19;;;;;;;1.23;1.00;;;;;;;;;;5123295;28;20212;-66
2021/12/04 05:26:47;;;;;;;1.90;1.37;;;;;;;;;;5108665;28;20211;-66
2021/12/04 05:29:14;;;;;;;5.83;1.80;;;;;;;;;;5095120;28;20286;-66
2021/12/04 05:31:42;;;;;;;2.00;1.70;;;;;;;;;;5108568;28;20204;-66
2021/12/04 05:34:09;;;;;;;1.53;1.13;;;;;;;;;;5103481;28;20279;-66
2021/12/04 05:36:36;;;;;;;2.00;1.37;;;;;;;;;;5096116;28;20209;-66
2021/12/04 05:39:03;;;;;;;1.50;1.40;;;;;;;;;;5106751;28;20700;-66
2021/12/04 05:41:30;;;;;;;1.03;1.03;;;;;;;;;;5092507;28;20204;-66
2021/12/04 05:44:03;;;;;;;2.87;1.37;;;;;;;;;;5091229;28;20326;-66
2021/12/04 05:46:36;;;;;;;1.90;1.80;;;;;;;;;;5107039;28;20227;-66
2021/12/04 05:49:07;;;;;;;2.20;1.40;;;;;;;;;;5086761;28;20206;-66
2021/12/04 05:51:51;;;;;;;1.73;1.63;;;;;;;;;;5101342;28;20283;-66
2021/12/04 05:54:49;;;;;;;1.20;1.10;;;;;;;;;;5098754;28;20601;-66
2021/12/04 05:57:16;;;;;;;1.50;1.40;;;;;;;;;;5108420;28;20209;-66
2021/12/04 05:59:44;;;;;;;1.53;1.43;;;;;;;;;;5100881;28;20213;-66
2021/12/04 06:02:11;;;;;;;2.77;1.93;;;;;;;;;;5089575;28;20224;-65
2021/12/04 06:04:38;;;;;;;2.57;2.10;;;;;;;;;;5106741;28;20208;-66
2021/12/04 06:07:05;;;;;;;3.83;1.87;;;;;;;;;;5108081;28;20205;-66
2021/12/04 06:09:32;;;;;;;2.23;1.60;;;;;;;;;;5090994;28;20265;-66
2021/12/04 06:12:04;;;;;;;2.17;1.70;;;;;;;;;;5090086;28;20204;-66
2021/12/04 06:14:31;;;;;;;1.63;1.53;;;;;;;;;;5104156;28;20647;-65
2021/12/04 06:17:00;;;;;;;2.43;1.83;;;;;;;;;;5098431;28;20200;-66
2021/12/04 06:22:37;;;;;;;2.00;1.80;;;;;;;;;;5094338;28;20213;-66
2021/12/04 06:24:59;;;;;;;4.10;2.13;;;;;;;;;;5109012;28;20202;-66
2021/12/04 06:27:26;;;;;;;1.67;1.53;;;;;;;;;;5104475;28;20205;-66
2021/12/04 06:29:53;;;;;;;2.53;1.70;;;;;;;;;;5093630;28;20254;-66
2021/12/04 06:32:21;;;;;;;1.83;1.73;;;;;;;;;;5103937;28;20603;-67
2021/12/04 06:34:48;;;;;;;1.33;1.23;;;;;;;;;;5100786;28;20225;-67
2021/12/04 06:37:16;;;;;;;1.63;1.27;;;;;;;;;;5104975;28;20204;-66
2021/12/04 06:39:43;;;;;;;1.07;1.07;;;;;;;;;;5110773;28;20213;-66
2021/12/04 06:42:10;;;;;;;1.67;1.57;;;;;;;;;;5106130;28;20209;-66
2021/12/04 06:44:37;;;;;;;2.00;1.40;;;;;;;;;;5110502;28;20209;-66
2021/12/04 06:47:04;;;;;;;1.53;1.43;;;;;;;;;;5105102;28;20202;-66
2021/12/04 06:49:35;;;;;;;3.90;1.73;;;;;;;;;;5092039;28;20236;-66
2021/12/04 06:52:05;;;;;;;1.83;1.60;;;;;;;;;;5103351;28;20225;-66
2021/12/04 06:54:37;;;;;;;2.20;1.77;;;;;;;;;;5110281;27;20232;-66
2021/12/04 06:57:09;;;;;;;3.17;1.53;;;;;;;;;;5105092;28;20312;-66
2021/12/04 06:59:38;;;;;;;1.37;1.23;;;;;;;;;;5092890;28;20209;-66
2021/12/04 07:02:05;;;;;;;2.40;1.17;;;;;;;;;;5104864;28;20230;-66
2021/12/04 07:04:37;;;;;;;1.83;1.50;;;;;;;;;;5108077;28;20208;-67
2021/12/04 07:07:04;;;;;;;1.00;0.93;;;;;;;;;;5103501;28;20201;-66
2021/12/04 07:09:31;;;;;;;3.37;1.80;;;;;;;;;;5091747;28;20216;-66
2021/12/04 07:11:59;;;;;;;1.37;1.37;;;;;;;;;;5100325;28;20389;-65
2021/12/04 07:14:26;;;;;;;1.97;1.50;;;;;;;;;;5109840;28;20265;-66
2021/12/04 07:16:54;;;;;;;2.20;2.00;;;;;;;;;;5094603;28;20670;-66
2021/12/04 07:19:21;;;;;;;1.53;1.43;;;;;;;;;;5092608;28;20317;-66
2021/12/04 07:21:49;;;;;;;2.30;2.20;;;;;;;;;;5111781;27;20214;-66
2021/12/04 07:24:17;;;;;;;2.80;1.50;;;;;;;;;;5097349;28;20232;-66
2021/12/04 07:26:44;;;;;;;1.00;0.90;;;;;;;;;;5090572;28;20208;-66
2021/12/04 07:29:11;;;;;;;2.43;2.23;;;;;;;;;;5092630;28;20216;-66
2021/12/04 07:31:38;;;;;;;2.97;1.90;;;;;;;;;;5094699;28;20203;-66
2021/12/04 07:34:05;;;;;;;3.03;2.63;;;;;;;;;;5107003;28;20218;-66
2021/12/04 07:36:33;;;;;;;1.93;1.47;;;;;;;;;;5108179;27;20203;-66
2021/12/04 07:39:15;;;;;;;1.73;1.63;;;;;;;;;;5110064;28;20203;-67
2021/12/04 07:41:43;;;;;;;1.97;1.77;;;;;;;;;;5109180;28;20723;-65
2021/12/04 07:44:10;;;;;;;2.47;1.70;;;;;;;;;;5095861;28;20206;-64
2021/12/04 07:46:38;;;;;;;1.90;1.50;;;;;;;;;;5092222;28;20212;-64
2021/12/04 07:49:05;;;;;;;2.10;2.00;;;;;;;;;;5091892;28;20204;-67
2021/12/04 07:51:32;;;;;;;2.33;2.00;;;;;;;;;;5091977;28;20229;-65
2021/12/04 07:53:59;;;;;;;3.20;2.67;;;;;;;;;;5103856;28;20249;-65
2021/12/04 07:56:27;;;;;;;1.90;1.70;;;;;;;;;;5109411;28;20552;-65
2021/12/04 07:58:55;;;;;;;2.57;2.27;;;;;;;;;;5104146;28;20207;-65
2021/12/04 08:01:23;;;;;;;4.13;1.80;;;;;;;;;;5109200;27;20269;-65
2021/12/04 08:03:50;;;;;;;5.13;3.10;;;;;;;;;;5108520;27;20199;-64
2021/12/04 08:06:17;;;;;;;2.97;1.97;;;;;;;;;;5098578;28;20216;-64
2021/12/04 08:08:44;;;;;;;1.40;1.30;;;;;;;;;;5091078;28;20263;-65
2021/12/04 08:11:11;;;;;;;4.97;2.43;;;;;;;;;;5098624;28;20236;-65
2021/12/04 08:13:38;;;;;;;2.53;1.63;;;;;;;;;;5105204;28;20300;-65
2021/12/04 08:16:07;;;;;;;4.17;2.50;;;;;;;;;;5104904;28;20261;-64
2021/12/04 08:18:34;;;;;;;3.70;2.80;;;;;;;;;;5101568;28;20206;-63
2021/12/04 08:21:01;;;;;;;2.80;2.07;;;;;;;;;;5090958;28;20271;-65
2021/12/04 08:23:28;;;;;;;3.77;2.23;;;;;;;;;;5094650;28;20216;-64
2021/12/04 08:25:56;;;;;;;2.50;2.07;;;;;;;;;;5095438;28;20215;-65
2021/12/04 08:28:23;;;;;;;2.67;1.60;;;;;;;;;;5099461;28;20199;-64
2021/12/04 08:30:51;;;;;;;1.57;1.47;;;;;;;;;;5105205;28;20306;-64
2021/12/04 08:33:19;;;;;;;2.27;1.53;;;;;;;;;;5092980;28;20232;-65
2021/12/04 08:35:46;;;;;;;2.10;2.00;;;;;;;;;;5105122;28;20579;-65
2021/12/04 08:38:16;;;;;;;2.03;1.20;;;;;;;;;;5105670;28;20198;-66
2021/12/04 08:40:43;;;;;;;2.07;1.90;;;;;;;;;;5099290;28;20203;-64
2021/12/04 08:43:10;;;;;;;2.13;2.00;;;;;;;;;;5101850;28;20216;-64
2021/12/04 08:45:38;;;;;;;1.70;1.23;;;;;;;;;;5094304;28;20227;-65
2021/12/04 08:48:05;;;;;;;2.80;2.60;;;;;;;;;;5090793;28;20212;-64
2021/12/04 08:50:35;;;;;;;1.73;1.73;;;;;;;;;;5102156;27;20212;-65
2021/12/04 08:53:02;;;;;;;1.73;1.60;;;;;;;;;;5098670;28;20286;-65
2021/12/04 08:55:30;;;;;;;2.27;2.00;;;;;;;;;;5097167;28;20226;-64
2021/12/04 08:57:57;;;;;;;2.20;2.07;;;;;;;;;;5098171;28;20728;-65
2021/12/04 09:00:26;;;;;;;4.20;3.57;;;;;;;;;;5099786;28;20212;-65
2021/12/04 09:02:53;;;;;;;5.40;3.10;;;;;;;;;;5099064;28;20219;-65
2021/12/04 09:05:21;;;;;;;3.13;2.83;;;;;;;;;;5097541;28;20207;-65
2021/12/04 09:07:49;;;;;;;1.70;1.57;;;;;;;;;;5114989;27;20204;-65
2021/12/04 09:10:18;;;;;;;2.50;2.30;;;;;;;;;;5114447;27;20235;-66
2021/12/04 09:12:46;;;;;;;3.53;1.90;;;;;;;;;;5117307;27;20203;-65
2021/12/04 09:15:15;;;;;;;1.20;1.20;;;;;;;;;;5119490;27;20275;-65
2021/12/04 09:17:42;;;;;;;1.73;1.67;;;;;;;;;;5119337;28;20203;-66
2021/12/04 09:20:11;;;;;;;0.97;0.97;;;;;;;;;;5115189;28;20208;-66
2021/12/04 09:22:38;;;;;;;1.70;1.00;;;;;;;;;;5117736;27;20203;-65
2021/12/04 09:25:10;;;;;;;1.23;1.13;;;;;;;;;;5116831;28;20192;-65
2021/12/04 09:27:48;;;;;;;2.33;1.77;;;;;;;;;;5113432;28;20291;-65
2021/12/04 09:30:37;;;;;;;2.07;1.83;;;;;;;;;;5109118;28;20212;-65
2021/12/04 10:03:43;;;;;;;2.03;1.40;;;;;;;;;;5118256;27;20212;-65
2021/12/04 10:12:04;;;;;;;2.97;2.10;;;;;;;;;;5119097;27;20597;-65
2021/12/04 10:17:38;;;;;;;0.87;0.87;;;;;;;;;;5122825;27;20210;-66
2021/12/04 10:20:18;;;;;;;0.40;0.40;;;;;;;;;;5116848;27;20248;-66
2021/12/04 10:23:07;;;;;;;1.77;1.03;;;;;;;;;;5111703;27;22085;-67
2021/12/04 10:34:13;;;;;;;2.43;2.07;;;;;;;;;;5109080;28;20437;-67
2021/12/04 10:36:40;;;;;;;1.67;1.57;;;;;;;;;;5110743;28;20196;-67
2021/12/04 10:39:10;;;;;;;1.70;1.60;;;;;;;;;;5106435;28;20222;-65
2021/12/04 10:41:39;;;;;;;2.10;1.80;;;;;;;;;;5109637;28;20197;-67
2021/12/04 10:44:13;;;;;;;1.67;1.33;;;;;;;;;;5108762;28;20330;-69
2021/12/04 10:46:52;;;;;;;3.97;1.67;;;;;;;;;;5109293;28;20735;-67
2021/12/04 10:49:30;;;;;;;2.77;1.50;;;;;;;;;;5109057;28;20253;-69
2021/12/04 10:52:02;;;;;;;3.07;2.37;;;;;;;;;;5109757;28;20313;-64
2021/12/04 10:54:38;;;;;;;3.37;1.97;;;;;;;;;;5111082;28;20253;-65
2021/12/04 10:57:32;;;;;;;1.30;0.87;;;;;;;;;;5109844;28;20212;-68
2021/12/04 11:00:05;;;;;;;2.53;1.90;;;;;;;;;;5107127;28;20198;-67
2021/12/04 11:02:40;;;;;;;4.50;2.30;;;;;;;;;;5105326;28;20206;-67
2021/12/04 11:05:27;;;;;;;2.50;2.17;;;;;;;;;;5110223;28;20205;-67
2021/12/04 11:19:10;;;;;;;2.43;2.23;;;;;;;;;;5106642;28;20574;-68
2021/12/04 11:24:34;;;;;;;1.80;1.70;;;;;;;;;;5107595;28;20202;-68
2021/12/04 11:36:00;;;;;;;5.77;3.07;;;;;;;;;;5116411;27;20263;-68
2021/12/04 11:38:36;;;;;;;3.77;2.47;;;;;;;;;;5117898;27;20242;-68
2021/12/04 11:41:26;;;;;;;5.03;2.93;;;;;;;;;;5114872;27;20330;-68
2021/12/04 11:43:58;;;;;;;4.57;2.67;;;;;;;;;;5117116;27;20214;-68
2021/12/04 11:46:29;;;;;;;4.10;2.60;;;;;;;;;;5116815;27;20722;-72
2021/12/04 11:48:59;;;;;;;3.27;2.13;;;;;;;;;;5116871;27;20278;-68
2021/12/04 11:51:28;;;;;;;2.27;2.07;;;;;;;;;;5114367;27;20208;-68
2021/12/04 11:53:56;;;;;;;5.90;2.77;;;;;;;;;;5116843;27;20202;-68
2021/12/04 11:56:25;;;;;;;5.37;3.57;;;;;;;;;;5112947;27;20236;-68
2021/12/04 11:58:53;;;;;;;4.70;2.80;;;;;;;;;;5115978;27;20205;-68
2021/12/04 12:01:31;;;;;;;6.40;2.87;;;;;;;;;;5113841;27;20300;-68
2021/12/04 12:03:59;;;;;;;2.03;1.90;;;;;;;;;;5111572;27;20698;-68
2021/12/04 12:06:32;;;;;;;3.77;2.30;;;;;;;;;;5117860;27;20212;-68
2021/12/04 12:09:05;;;;;;;3.20;2.87;;;;;;;;;;5119331;27;20215;-68
2021/12/04 12:11:32;;;;;;;4.23;2.77;;;;;;;;;;5118222;27;20286;-68
2021/12/04 12:14:00;;;;;;;5.50;2.97;;;;;;;;;;5118694;27;20208;-68
2021/12/04 12:16:31;;;;;;;5.97;2.67;;;;;;;;;;5118543;27;20224;-68
2021/12/04 12:18:59;;;;;;;5.10;2.73;;;;;;;;;;5118440;27;20204;-68
2021/12/04 12:21:32;;;;;;;4.20;2.20;;;;;;;;;;5117278;27;20201;-68
2021/12/04 12:27:12;;;;;;;3.93;2.57;;;;;;;;;;5116498;27;20236;-68
2021/12/04 12:32:40;;;;;;;2.20;2.00;;;;;;;;;;5106808;28;20350;-68
2021/12/04 12:37:53;;;;;;;2.93;2.67;;;;;;;;;;5104206;28;20231;-68
2021/12/04 12:40:29;;;;;;;3.17;2.50;;;;;;;;;;5101571;28;20212;-68
2021/12/04 12:42:56;;;;;;;5.40;3.27;;;;;;;;;;5106151;28;20286;-68
2021/12/04 12:45:24;;;;;;;2.70;2.50;;;;;;;;;;5105590;28;20747;-68
2021/12/04 12:47:52;;;;;;;3.30;2.60;;;;;;;;;;5090936;28;20218;-69
2021/12/04 12:50:30;;;;;;;4.33;3.50;;;;;;;;;;5101034;28;20209;-69
2021/12/04 12:53:01;;;;;;;4.50;3.27;;;;;;;;;;5105985;28;20678;-69
2021/12/04 12:55:34;;;;;;;4.40;3.50;;;;;;;;;;5092700;28;20327;-69
2021/12/04 12:58:12;;;;;;;5.87;3.20;;;;;;;;;;5086353;28;20224;-69
2021/12/04 13:11:53;;;;;;;5.40;3.40;;;;;;;;;;5087805;28;20236;-69
2021/12/04 13:14:21;;;;;;;3.53;2.67;;;;;;;;;;5097420;28;20205;-69
2021/12/04 13:16:49;;;;;;;2.73;2.43;;;;;;;;;;5092222;28;20291;-69
2021/12/04 13:19:18;;;;;;;2.77;2.00;;;;;;;;;;5085324;28;20210;-69
2021/12/04 13:21:47;;;;;;;2.50;1.60;;;;;;;;;;5089395;28;20199;-69
2021/12/04 13:24:14;;;;;;;2.93;1.97;;;;;;;;;;5090580;28;20217;-69
2021/12/04 13:26:42;;;;;;;1.73;1.50;;;;;;;;;;5104934;28;20408;-69
2021/12/04 13:29:12;;;;;;;3.30;2.40;;;;;;;;;;5099344;28;20550;-69
2021/12/04 13:31:40;;;;;;;5.57;3.47;;;;;;;;;;5103523;28;20209;-69
2021/12/04 13:34:07;;;;;;;5.67;2.77;;;;;;;;;;5094359;28;20225;-69
2021/12/04 13:36:35;;;;;;;3.33;2.87;;;;;;;;;;5089432;28;20241;-69
2021/12/04 13:39:04;;;;;;;5.63;3.53;;;;;;;;;;5093341;28;20296;-69
2021/12/04 13:41:33;;;;;;;4.23;2.67;;;;;;;;;;5097834;28;20209;-69
2021/12/04 13:44:02;;;;;;;2.73;2.50;;;;;;;;;;5096606;28;20219;-69
2021/12/04 13:46:38;;;;;;;5.37;2.90;;;;;;;;;;5109798;28;20593;-69
2021/12/04 13:49:05;;;;;;;3.70;2.73;;;;;;;;;;5097109;28;20202;-69
2021/12/04 13:51:32;;;;;;;4.30;2.67;;;;;;;;;;5103572;28;20210;-69
2021/12/04 13:54:02;;;;;;;5.10;3.00;;;;;;;;;;5098844;28;20215;-69
2021/12/04 13:56:30;;;;;;;9.07;3.93;;;;;;;;;;5095138;28;20321;-69
2021/12/04 13:58:58;;;;;;;4.10;2.90;;;;;;;;;;5090147;28;20207;-69
2021/12/04 14:01:25;;;;;;;5.90;3.97;;;;;;;;;;5090850;28;20217;-68
2021/12/04 14:03:56;;;;;;;6.57;3.87;;;;;;;;;;5091485;28;20212;-67
2021/12/04 14:06:23;;;;;;;5.93;3.73;;;;;;;;;;5106297;28;20205;-68
2021/12/04 14:08:57;;;;;;;6.43;3.30;;;;;;;;;;5094026;27;20206;-67
2021/12/04 14:11:28;;;;;;;4.77;2.47;;;;;;;;;;5088565;28;20284;-69
2021/12/04 14:13:55;;;;;;;2.13;1.77;;;;;;;;;;5088347;28;20198;-68
2021/12/04 14:16:24;;;;;;;3.70;2.60;;;;;;;;;;5086473;28;20237;-68
2021/12/04 14:18:51;;;;;;;4.50;2.97;;;;;;;;;;5087571;28;20213;-67
2021/12/04 14:21:19;;;;;;;4.13;3.00;;;;;;;;;;5088161;28;20680;-67
2021/12/04 14:23:48;;;;;;;17.83;7.10;;;;;;;;;;5087480;28;20201;-67
2021/12/04 14:26:15;;;;;;;16.60;6.97;;;;;;;;;;5091701;28;20201;-67
2021/12/04 14:28:44;;;;;;;5.63;2.80;;;;;;;;;;5108362;28;20711;-67
2021/12/04 14:31:11;;;;;;;2.53;1.83;;;;;;;;;;5108494;28;20215;-68
2021/12/04 14:33:39;;;;;;;2.47;2.03;;;;;;;;;;5107488;28;20601;-68
2021/12/04 14:36:06;;;;;;;2.33;2.10;;;;;;;;;;5107735;28;20218;-68
2021/12/04 14:38:35;;;;;;;5.90;2.27;;;;;;;;;;5097537;28;20255;-68
2021/12/04 14:41:02;;;;;;;4.57;2.93;;;;;;;;;;5088166;28;20206;-68
2021/12/04 14:43:33;;;;;;;4.80;2.70;;;;;;;;;;5091957;28;20198;-68
2021/12/04 14:46:01;;;;;;;4.70;2.60;;;;;;;;;;5092432;28;20195;-67
2021/12/04 14:48:33;;;;;;;3.60;2.23;;;;;;;;;;5108272;27;20627;-65
2021/12/04 14:51:05;;;;;;;4.00;2.10;;;;;;;;;;5102174;28;20683;-66
2021/12/04 14:53:33;;;;;;;3.60;2.20;;;;;;;;;;5096391;28;20238;-65
2021/12/04 14:58:52;;;;;;;3.87;2.03;;;;;;;;;;5095158;28;20217;-68
2021/12/04 15:01:21;;;;;;;3.10;2.40;;;;;;;;;;5098701;28;20206;-68
2021/12/04 15:03:51;;;;;;;5.90;2.13;;;;;;;;;;5096435;28;20202;-68
2021/12/04 15:06:19;;;;;;;2.80;1.90;;;;;;;;;;5107815;28;20221;-67
2021/12/04 15:08:47;;;;;;;7.47;3.40;;;;;;;;;;5094313;28;20670;-67
2021/12/04 15:11:18;;;;;;;4.67;3.40;;;;;;;;;;5086338;28;20234;-67
2021/12/04 15:13:50;;;;;;;6.07;3.97;;;;;;;;;;5087331;28;20228;-67
2021/12/04 15:16:20;;;;;;;5.10;2.30;;;;;;;;;;5087274;28;20219;-68
2021/12/04 15:18:48;;;;;;;3.27;2.00;;;;;;;;;;5089855;28;20214;-68
2021/12/04 15:21:17;;;;;;;5.87;3.90;;;;;;;;;;5107528;28;20300;-68
2021/12/04 15:23:45;;;;;;;5.57;3.53;;;;;;;;;;5097994;28;20206;-68
2021/12/04 15:26:15;;;;;;;4.70;2.90;;;;;;;;;;5086895;28;20617;-67
2021/12/04 15:28:47;;;;;;;8.23;3.67;;;;;;;;;;5096562;28;20211;-69
2021/12/04 15:31:14;;;;;;;5.03;3.63;;;;;;;;;;5096698;28;20574;-68
2021/12/04 15:33:42;;;;;;;7.40;3.23;;;;;;;;;;5097123;28;20222;-66
2021/12/04 15:36:20;;;;;;;4.53;2.67;;;;;;;;;;5097466;28;20299;-68
2021/12/04 15:38:51;;;;;;;3.20;2.93;;;;;;;;;;5095364;28;20223;-69
2021/12/04 15:41:31;;;;;;;3.40;2.47;;;;;;;;;;5089925;28;20230;-69
2021/12/04 15:44:13;;;;;;;3.17;2.77;;;;;;;;;;5104050;28;20205;-69
2021/12/04 15:46:49;;;;;;;5.33;3.13;;;;;;;;;;5106338;28;20824;-69
2021/12/04 15:49:51;;;;;;;5.77;2.73;;;;;;;;;;5093332;28;20209;-69
2021/12/04 15:55:01;;;;;;;3.13;2.80;;;;;;;;;;5106153;28;20196;-69
2021/12/04 15:57:28;;;;;;;8.27;3.90;;;;;;;;;;5106015;28;20252;-69
2021/12/04 15:59:58;;;;;;;9.00;4.90;;;;;;;;;;5092255;28;20241;-69
2021/12/04 16:02:32;;;;;;;6.23;4.10;;;;;;;;;;5086691;28;20210;-68
2021/12/04 16:05:08;;;;;;;7.73;4.00;;;;;;;;;;5094105;28;20208;-69
2021/12/04 16:07:35;;;;;;;4.50;3.10;;;;;;;;;;5086051;28;20241;-69
2021/12/04 16:10:09;;;;;;;4.83;3.07;;;;;;;;;;5089248;28;20314;-69
2021/12/04 16:12:37;;;;;;;2.97;2.33;;;;;;;;;;5085717;28;20279;-69
2021/12/04 16:15:06;;;;;;;5.00;2.70;;;;;;;;;;5091693;28;20207;-69
2021/12/04 16:17:33;;;;;;;2.60;2.30;;;;;;;;;;5086044;28;20287;-69
2021/12/04 16:20:06;;;;;;;2.43;2.23;;;;;;;;;;5085668;28;20265;-68
2021/12/04 16:22:37;;;;;;;3.20;2.77;;;;;;;;;;5100365;28;20664;-69
2021/12/04 16:25:05;;;;;;;3.17;2.60;;;;;;;;;;5092440;28;20238;-69
2021/12/04 16:27:37;;;;;;;4.60;2.50;;;;;;;;;;5105591;28;20205;-69
2021/12/04 16:30:24;;;;;;;3.07;2.30;;;;;;;;;;5105216;28;20214;-69
2021/12/04 16:32:57;;;;;;;3.57;2.60;;;;;;;;;;5096633;28;20729;-68
2021/12/04 16:35:38;;;;;;;2.57;2.33;;;;;;;;;;5097676;28;20214;-69
2021/12/04 16:38:06;;;;;;;5.97;2.53;;;;;;;;;;5105870;28;20206;-68
2021/12/04 16:40:35;;;;;;;2.03;1.87;;;;;;;;;;5103329;28;20206;-68
2021/12/04 16:43:05;;;;;;;6.00;3.17;;;;;;;;;;5096279;27;20422;-65
2021/12/04 16:45:34;;;;;;;7.57;4.53;;;;;;;;;;5088812;28;20202;-67
2021/12/04 16:48:05;;;;;;;13.23;6.67;;;;;;;;;;5106105;28;20260;-69
2021/12/04 16:50:45;;;;;;;6.87;3.63;;;;;;;;;;5105315;28;20208;-70
2021/12/04 16:56:17;;;;;;;5.83;3.97;;;;;;;;;;5089464;28;20320;-73
2021/12/04 16:58:45;;;;;;;6.63;3.70;;;;;;;;;;5084972;28;20412;-78
2021/12/04 17:01:14;;;;;;;3.97;3.50;;;;;;;;;;5084719;28;20684;-68
2021/12/04 17:03:41;;;;;;;4.90;3.53;;;;;;;;;;5099237;28;20205;-70
2021/12/04 17:06:08;;;;;;;9.20;4.80;;;;;;;;;;5104988;28;20202;-70
2021/12/04 17:08:36;;;;;;;8.57;5.07;;;;;;;;;;5102434;28;20212;-69
2021/12/04 17:11:03;;;;;;;11.30;5.30;;;;;;;;;;5084584;28;20241;-68
2021/12/04 17:13:31;;;;;;;73.27;24.23;;;;;;;;;;5093776;28;20584;-64
2021/12/04 17:15:58;;;;;;;472.47;212.53;;;;;;;;;;5106661;28;20216;-69
2021/12/04 17:18:28;;;;;;;438.40;190.43;;;;;;;;;;5090769;28;20202;-67
2021/12/04 17:20:57;;;;;;;71.87;29.57;;;;;;;;;;5093485;28;20299;-68
2021/12/04 17:23:25;;;;;;;26.63;9.07;;;;;;;;;;5104447;28;20257;-68
2021/12/04 17:25:53;;;;;;;6.90;4.23;;;;;;;;;;5105191;28;20223;-67
2021/12/04 17:28:22;;;;;;;8.00;3.13;;;;;;;;;;5090787;28;20259;-70
2021/12/04 17:30:49;;;;;;;2.20;2.10;;;;;;;;;;5083174;28;20202;-70